Alfonso, Virginia
Current Conditions -  °F | °C
As of 12:55 PM on Sunday 25 Jan 2015 (Local Time) from KW75 Reporting Station
Clear Clear  
Wind Chill: 49°   Ceiling: Unl
Heat Index: 49°   Visibility: 10mi
Dew Point: 31°   Wind: 0mph
Humidity: 50%   Direction: NA
Pressure: 29.87"   Gusts: NA
Location:  37.7649°N, 76.5055°W
Report Text: KW75 251755Z AUTO 00000KT 10SM CLR 09/M01 A2987 RMK AO1 T00931006 10096 20009
Loading
Personal Weather Stations






























Interactive Weather Map New forecast layout! Learn more

10-Day Weather Forecast

Advertisements
Track Severe Weather on mobile